F/V Oceanie — FVBW — position and weather

sailwx.info

Track history (hours):
 
Tides and Currents Weather Stations Pressure Air Temp Water Temp Dewpoint Dewpoint Depression Visibility Wind Speed Wind Dir Waves Ship Positions

F/V Oceanie

Last reported at 2014-Jul-22 04:19 UTC. Time now 2014-Jul-22 07:24 UTC.
Position N 47°07' W 003°27'.

Length 16 m.

Type: Fishing. MMSI: 228370000.

Date/timePositionNaut miles runAvg speedWind from/ knotsBaromVisibWave heightAir tempDewpointWater temp
2014-Jul-22 04:19N 47°07' W 003°27'7 7.9
2014-Jul-22 03:24N 47°14' W 003°26'8 9.0
2014-Jul-22 02:33N 47°22' W 003°25'9 9.1
2014-Jul-22 01:33N 47°31' W 003°24'10 9.5
2014-Jul-22 00:33N 47°40' W 003°22'  
2014-Jul-18 23:33N 47°44' W 003°22'8 7.8
2014-Jul-18 22:33N 47°39' W 003°32'10 8.8
2014-Jul-18 21:25N 47°35' W 003°45'1 0.0
2014-Jul-18 03:33N 47°35' W 003°44'8 8.2
2014-Jul-18 02:33N 47°39' W 003°33'8 8.5
2014-Jul-18 01:33N 47°43' W 003°22'2 2.3
2014-Jul-18 00:33N 47°41' W 003°22'9 8.9
2014-Jul-17 23:33N 47°32' W 003°23'9 8.7
2014-Jul-17 22:33N 47°23' W 003°24'9 8.5
2014-Jul-17 21:30N 47°14' W 003°24'4 3.8
2014-Jul-17 20:33N 47°11' W 003°27'9 0.5
2014-Jul-17 04:06N 47°20' W 003°26'5 8.7
2014-Jul-17 03:33N 47°24' W 003°25'9 8.7
2014-Jul-17 02:33N 47°33' W 003°23'9 8.8
2014-Jul-17 01:33N 47°42' W 003°22'0 0.2
2014-Jul-17 00:33N 47°42' W 003°22'9 9.1
2014-Jul-16 23:34N 47°33' W 003°23'9 8.7
2014-Jul-16 22:31N 47°24' W 003°24'14 0.8
2014-Jul-16 05:25N 47°09' W 003°26'7 8.2
2014-Jul-16 04:32N 47°17' W 003°25'9 9.0
2014-Jul-16 03:33N 47°25' W 003°24'9 8.8
2014-Jul-16 02:33N 47°34' W 003°23'9 8.8
2014-Jul-16 01:33N 47°43' W 003°22'3 2.6
2014-Jul-16 00:33N 47°40' W 003°22'9 9.1
2014-Jul-15 23:33N 47°31' W 003°24'9 8.7
2014-Jul-15 22:33N 47°23' W 003°24'0 0.0
2014-Jul-15 03:32N 47°23' W 003°24'9 8.8
2014-Jul-15 02:33N 47°31' W 003°23'9 8.6
2014-Jul-15 01:33N 47°40' W 003°22'3 2.6
2014-Jul-15 00:33N 47°43' W 003°22'10 9.5
2014-Jul-14 23:33N 47°33' W 003°23'9 9.3
2014-Jul-14 22:33N 47°24' W 003°24'14 0.8
2014-Jul-14 04:18N 47°10' W 003°26'9 8.9
2014-Jul-14 03:16N 47°19' W 003°25'6 8.9
2014-Jul-14 02:33N 47°25' W 003°24'9 8.6
2014-Jul-14 01:33N 47°34' W 003°23'9 8.7
2014-Jul-14 00:33N 47°43' W 003°22'  
Track history (hours):
 
Tides and Currents Weather Stations Pressure Air Temp Water Temp Dewpoint Dewpoint Depression Visibility Wind Speed Wind Dir Waves Ship Positions

F/V Oceanie

Last reported at 2014-Jul-22 04:19 UTC. Time now 2014-Jul-22 07:24 UTC.
Position N 47°07' W 003°27'.

Length 16 m.

Type: Fishing. MMSI: 228370000.

Date/timePositionNaut miles runAvg speedWind from/ knotsBaromVisibWave heightAir tempDewpointWater temp
2014-Jul-22 04:19N 47°07' W 003°27'7 7.9
2014-Jul-22 03:24N 47°14' W 003°26'8 9.0
2014-Jul-22 02:33N 47°22' W 003°25'9 9.1
2014-Jul-22 01:33N 47°31' W 003°24'10 9.5
2014-Jul-22 00:33N 47°40' W 003°22'  
2014-Jul-18 23:33N 47°44' W 003°22'8 7.8
2014-Jul-18 22:33N 47°39' W 003°32'10 8.8
2014-Jul-18 21:25N 47°35' W 003°45'1 0.0
2014-Jul-18 03:33N 47°35' W 003°44'8 8.2
2014-Jul-18 02:33N 47°39' W 003°33'8 8.5
2014-Jul-18 01:33N 47°43' W 003°22'2 2.3
2014-Jul-18 00:33N 47°41' W 003°22'9 8.9
2014-Jul-17 23:33N 47°32' W 003°23'9 8.7
2014-Jul-17 22:33N 47°23' W 003°24'9 8.5
2014-Jul-17 21:30N 47°14' W 003°24'4 3.8
2014-Jul-17 20:33N 47°11' W 003°27'9 0.5
2014-Jul-17 04:06N 47°20' W 003°26'5 8.7
2014-Jul-17 03:33N 47°24' W 003°25'9 8.7
2014-Jul-17 02:33N 47°33' W 003°23'9 8.8
2014-Jul-17 01:33N 47°42' W 003°22'0 0.2
2014-Jul-17 00:33N 47°42' W 003°22'9 9.1
2014-Jul-16 23:34N 47°33' W 003°23'9 8.7
2014-Jul-16 22:31N 47°24' W 003°24'14 0.8
2014-Jul-16 05:25N 47°09' W 003°26'7 8.2
2014-Jul-16 04:32N 47°17' W 003°25'9 9.0
2014-Jul-16 03:33N 47°25' W 003°24'9 8.8
2014-Jul-16 02:33N 47°34' W 003°23'9 8.8
2014-Jul-16 01:33N 47°43' W 003°22'3 2.6
2014-Jul-16 00:33N 47°40' W 003°22'9 9.1
2014-Jul-15 23:33N 47°31' W 003°24'9 8.7
2014-Jul-15 22:33N 47°23' W 003°24'0 0.0
2014-Jul-15 03:32N 47°23' W 003°24'9 8.8
2014-Jul-15 02:33N 47°31' W 003°23'9 8.6
2014-Jul-15 01:33N 47°40' W 003°22'3 2.6
2014-Jul-15 00:33N 47°43' W 003°22'10 9.5
2014-Jul-14 23:33N 47°33' W 003°23'9 9.3
2014-Jul-14 22:33N 47°24' W 003°24'14 0.8
2014-Jul-14 04:18N 47°10' W 003°26'9 8.9
2014-Jul-14 03:16N 47°19' W 003°25'6 8.9
2014-Jul-14 02:33N 47°25' W 003°24'9 8.6
2014-Jul-14 01:33N 47°34' W 003°23'9 8.7
2014-Jul-14 00:33N 47°43' W 003°22'  

Dump ship's entire track history